sensor_id;sensor_type;location;lat;lon;timestamp;temperature;humidity
22471;DHT22;11402;51.374;6.594;2023-04-03T00:01:32;2.40;99.90
22471;DHT22;11402;51.374;6.594;2023-04-03T00:03:58;2.30;99.90
22471;DHT22;11402;51.374;6.594;2023-04-03T00:06:24;2.30;99.90
22471;DHT22;11402;51.374;6.594;2023-04-03T00:08:51;2.30;99.90
22471;DHT22;11402;51.374;6.594;2023-04-03T00:11:17;2.30;99.90
22471;DHT22;11402;51.374;6.594;2023-04-03T00:13:44;2.30;99.90
22471;DHT22;11402;51.374;6.594;2023-04-03T00:16:11;2.20;99.90
22471;DHT22;11402;51.374;6.594;2023-04-03T00:18:37;2.20;99.90
22471;DHT22;11402;51.374;6.594;2023-04-03T00:21:04;2.20;99.90
22471;DHT22;11402;51.374;6.594;2023-04-03T00:23:30;2.20;99.90
22471;DHT22;11402;51.374;6.594;2023-04-03T00:25:56;2.20;99.90
22471;DHT22;11402;51.374;6.594;2023-04-03T00:28:21;2.30;99.90
22471;DHT22;11402;51.374;6.594;2023-04-03T00:30:50;2.20;99.90
22471;DHT22;11402;51.374;6.594;2023-04-03T00:33:16;2.20;99.90
22471;DHT22;11402;51.374;6.594;2023-04-03T00:35:41;2.10;99.90
22471;DHT22;11402;51.374;6.594;2023-04-03T00:38:08;2.10;99.90
22471;DHT22;11402;51.374;6.594;2023-04-03T00:40:39;2.10;99.90
22471;DHT22;11402;51.374;6.594;2023-04-03T00:43:26;2.10;99.90
22471;DHT22;11402;51.374;6.594;2023-04-03T00:45:53;2.10;99.90
22471;DHT22;11402;51.374;6.594;2023-04-03T00:48:46;2.00;99.90
22471;DHT22;11402;51.374;6.594;2023-04-03T00:51:23;1.90;99.90
22471;DHT22;11402;51.374;6.594;2023-04-03T00:53:53;1.90;99.90
22471;DHT22;11402;51.374;6.594;2023-04-03T00:56:23;2.00;99.90
22471;DHT22;11402;51.374;6.594;2023-04-03T01:01:31;2.00;99.90
22471;DHT22;11402;51.374;6.594;2023-04-03T01:03:59;2.00;99.90
22471;DHT22;11402;51.374;6.594;2023-04-03T01:06:29;2.00;99.90
22471;DHT22;11402;51.374;6.594;2023-04-03T01:08:57;2.00;99.90
22471;DHT22;11402;51.374;6.594;2023-04-03T01:11:23;1.90;99.90
22471;DHT22;11402;51.374;6.594;2023-04-03T01:13:49;2.00;99.90
22471;DHT22;11402;51.374;6.594;2023-04-03T01:16:15;1.90;99.90
22471;DHT22;11402;51.374;6.594;2023-04-03T01:18:41;1.80;99.90
22471;DHT22;11402;51.374;6.594;2023-04-03T01:26:48;1.80;99.90
22471;DHT22;11402;51.374;6.594;2023-04-03T01:29:14;1.80;99.90
22471;DHT22;11402;51.374;6.594;2023-04-03T01:32:02;1.80;99.90
22471;DHT22;11402;51.374;6.594;2023-04-03T01:34:27;1.80;99.90
22471;DHT22;11402;51.374;6.594;2023-04-03T01:36:53;1.70;99.90
22471;DHT22;11402;51.374;6.594;2023-04-03T01:39:19;1.70;99.90
22471;DHT22;11402;51.374;6.594;2023-04-03T01:41:45;1.60;99.90
22471;DHT22;11402;51.374;6.594;2023-04-03T01:44:11;1.70;99.90
22471;DHT22;11402;51.374;6.594;2023-04-03T01:46:37;1.70;99.90
22471;DHT22;11402;51.374;6.594;2023-04-03T01:49:03;1.70;99.90
22471;DHT22;11402;51.374;6.594;2023-04-03T01:51:29;1.70;99.90
22471;DHT22;11402;51.374;6.594;2023-04-03T01:53:55;1.70;99.90
22471;DHT22;11402;51.374;6.594;2023-04-03T01:56:21;1.90;99.90
22471;DHT22;11402;51.374;6.594;2023-04-03T01:58:47;1.90;99.90
22471;DHT22;11402;51.374;6.594;2023-04-03T02:01:12;2.10;99.90
22471;DHT22;11402;51.374;6.594;2023-04-03T02:03:38;2.10;99.90
22471;DHT22;11402;51.374;6.594;2023-04-03T02:06:03;2.20;99.90
22471;DHT22;11402;51.374;6.594;2023-04-03T02:08:29;2.20;99.90
22471;DHT22;11402;51.374;6.594;2023-04-03T02:10:55;2.20;99.90
22471;DHT22;11402;51.374;6.594;2023-04-03T02:13:21;2.20;99.90
22471;DHT22;11402;51.374;6.594;2023-04-03T02:15:46;2.30;99.90
22471;DHT22;11402;51.374;6.594;2023-04-03T02:18:15;2.30;99.90
22471;DHT22;11402;51.374;6.594;2023-04-03T02:20:40;2.40;99.90
22471;DHT22;11402;51.374;6.594;2023-04-03T02:23:06;2.30;99.90
22471;DHT22;11402;51.374;6.594;2023-04-03T02:25:32;2.30;99.90
22471;DHT22;11402;51.374;6.594;2023-04-03T02:27:58;2.30;99.90
22471;DHT22;11402;51.374;6.594;2023-04-03T02:30:24;2.40;99.90
22471;DHT22;11402;51.374;6.594;2023-04-03T02:32:50;2.40;99.90
22471;DHT22;11402;51.374;6.594;2023-04-03T02:35:15;2.50;99.90
22471;DHT22;11402;51.374;6.594;2023-04-03T02:37:41;2.50;99.90
22471;DHT22;11402;51.374;6.594;2023-04-03T02:40:07;2.50;99.90
22471;DHT22;11402;51.374;6.594;2023-04-03T02:42:33;2.40;99.90
22471;DHT22;11402;51.374;6.594;2023-04-03T02:44:58;2.40;99.90
22471;DHT22;11402;51.374;6.594;2023-04-03T02:47:26;2.50;99.90
22471;DHT22;11402;51.374;6.594;2023-04-03T02:49:52;2.50;99.90
22471;DHT22;11402;51.374;6.594;2023-04-03T02:52:18;2.40;99.90
22471;DHT22;11402;51.374;6.594;2023-04-03T02:54:43;2.60;99.90
22471;DHT22;11402;51.374;6.594;2023-04-03T02:57:09;2.90;99.90
22471;DHT22;11402;51.374;6.594;2023-04-03T02:59:36;2.70;99.90
22471;DHT22;11402;51.374;6.594;2023-04-03T03:02:01;2.50;99.90
22471;DHT22;11402;51.374;6.594;2023-04-03T03:04:27;2.60;99.90
22471;DHT22;11402;51.374;6.594;2023-04-03T03:06:53;2.60;99.90
22471;DHT22;11402;51.374;6.594;2023-04-03T03:09:18;2.60;99.90
22471;DHT22;11402;51.374;6.594;2023-04-03T03:11:44;2.60;99.90
22471;DHT22;11402;51.374;6.594;2023-04-03T03:14:09;2.60;99.90
22471;DHT22;11402;51.374;6.594;2023-04-03T03:16:35;2.50;99.90
22471;DHT22;11402;51.374;6.594;2023-04-03T03:19:01;2.60;99.90
22471;DHT22;11402;51.374;6.594;2023-04-03T03:21:26;2.50;99.90
22471;DHT22;11402;51.374;6.594;2023-04-03T03:23:52;2.70;99.90
22471;DHT22;11402;51.374;6.594;2023-04-03T03:26:17;2.80;99.90
22471;DHT22;11402;51.374;6.594;2023-04-03T03:28:43;2.90;99.90
22471;DHT22;11402;51.374;6.594;2023-04-03T03:31:09;2.70;99.90
22471;DHT22;11402;51.374;6.594;2023-04-03T03:33:35;2.80;99.90
22471;DHT22;11402;51.374;6.594;2023-04-03T03:36:01;3.00;99.90
22471;DHT22;11402;51.374;6.594;2023-04-03T03:38:27;2.90;99.90
22471;DHT22;11402;51.374;6.594;2023-04-03T03:40:52;2.70;99.90
22471;DHT22;11402;51.374;6.594;2023-04-03T03:43:18;2.80;99.90
22471;DHT22;11402;51.374;6.594;2023-04-03T03:45:44;2.80;99.90
22471;DHT22;11402;51.374;6.594;2023-04-03T03:48:11;2.70;99.90
22471;DHT22;11402;51.374;6.594;2023-04-03T03:50:37;2.70;99.90
22471;DHT22;11402;51.374;6.594;2023-04-03T03:53:02;2.80;99.90
22471;DHT22;11402;51.374;6.594;2023-04-03T03:55:28;3.00;99.90
22471;DHT22;11402;51.374;6.594;2023-04-03T03:57:53;3.00;99.90
22471;DHT22;11402;51.374;6.594;2023-04-03T04:00:19;3.00;99.90
22471;DHT22;11402;51.374;6.594;2023-04-03T04:02:45;3.00;99.90
22471;DHT22;11402;51.374;6.594;2023-04-03T04:05:11;2.90;99.90
22471;DHT22;11402;51.374;6.594;2023-04-03T04:07:36;2.80;99.90
22471;DHT22;11402;51.374;6.594;2023-04-03T04:10:03;2.70;99.90
22471;DHT22;11402;51.374;6.594;2023-04-03T04:12:28;2.70;99.90
22471;DHT22;11402;51.374;6.594;2023-04-03T04:14:54;2.70;99.90
22471;DHT22;11402;51.374;6.594;2023-04-03T04:17:20;2.70;99.90
22471;DHT22;11402;51.374;6.594;2023-04-03T04:19:45;2.80;99.90
22471;DHT22;11402;51.374;6.594;2023-04-03T04:22:11;2.70;99.90
22471;DHT22;11402;51.374;6.594;2023-04-03T04:24:37;2.80;99.90
22471;DHT22;11402;51.374;6.594;2023-04-03T04:27:02;2.60;99.90
22471;DHT22;11402;51.374;6.594;2023-04-03T04:29:28;2.70;99.90
22471;DHT22;11402;51.374;6.594;2023-04-03T04:31:53;2.50;99.90
22471;DHT22;11402;51.374;6.594;2023-04-03T04:34:19;2.60;99.90
22471;DHT22;11402;51.374;6.594;2023-04-03T04:36:45;2.60;99.90
22471;DHT22;11402;51.374;6.594;2023-04-03T04:39:11;2.60;99.90
22471;DHT22;11402;51.374;6.594;2023-04-03T04:41:36;2.50;99.90
22471;DHT22;11402;51.374;6.594;2023-04-03T04:44:02;2.40;99.90
22471;DHT22;11402;51.374;6.594;2023-04-03T04:46:28;2.50;99.90
22471;DHT22;11402;51.374;6.594;2023-04-03T04:48:53;2.60;99.90
22471;DHT22;11402;51.374;6.594;2023-04-03T04:51:19;2.40;99.90
22471;DHT22;11402;51.374;6.594;2023-04-03T04:53:44;2.60;99.90
22471;DHT22;11402;51.374;6.594;2023-04-03T04:56:10;2.70;99.90
22471;DHT22;11402;51.374;6.594;2023-04-03T04:58:36;2.80;99.90
22471;DHT22;11402;51.374;6.594;2023-04-03T05:01:05;2.90;99.90
22471;DHT22;11402;51.374;6.594;2023-04-03T05:03:31;2.60;99.90
22471;DHT22;11402;51.374;6.594;2023-04-03T05:05:57;2.70;99.90
22471;DHT22;11402;51.374;6.594;2023-04-03T05:08:22;2.30;99.90
22471;DHT22;11402;51.374;6.594;2023-04-03T05:10:48;2.40;99.90
22471;DHT22;11402;51.374;6.594;2023-04-03T05:13:14;2.50;99.90
22471;DHT22;11402;51.374;6.594;2023-04-03T05:15:39;2.60;99.90
22471;DHT22;11402;51.374;6.594;2023-04-03T05:18:05;2.50;99.90
22471;DHT22;11402;51.374;6.594;2023-04-03T05:20:31;2.50;99.90
22471;DHT22;11402;51.374;6.594;2023-04-03T05:22:57;2.60;99.90
22471;DHT22;11402;51.374;6.594;2023-04-03T05:25:23;2.50;99.90
22471;DHT22;11402;51.374;6.594;2023-04-03T05:27:49;2.60;99.90
22471;DHT22;11402;51.374;6.594;2023-04-03T05:30:14;2.70;99.90
22471;DHT22;11402;51.374;6.594;2023-04-03T05:32:40;2.80;99.90
22471;DHT22;11402;51.374;6.594;2023-04-03T05:35:06;2.70;99.90
22471;DHT22;11402;51.374;6.594;2023-04-03T05:37:33;2.80;99.90
22471;DHT22;11402;51.374;6.594;2023-04-03T05:39:59;2.70;99.90
22471;DHT22;11402;51.374;6.594;2023-04-03T05:42:25;2.80;99.90
22471;DHT22;11402;51.374;6.594;2023-04-03T05:44:50;2.80;99.90
22471;DHT22;11402;51.374;6.594;2023-04-03T05:47:17;2.80;99.90
22471;DHT22;11402;51.374;6.594;2023-04-03T05:49:43;2.60;99.90
22471;DHT22;11402;51.374;6.594;2023-04-03T05:52:27;2.70;99.90
22471;DHT22;11402;51.374;6.594;2023-04-03T05:54:54;2.90;99.90
22471;DHT22;11402;51.374;6.594;2023-04-03T05:57:20;2.90;99.90
22471;DHT22;11402;51.374;6.594;2023-04-03T05:59:46;2.80;99.90
22471;DHT22;11402;51.374;6.594;2023-04-03T06:02:20;2.90;99.90
22471;DHT22;11402;51.374;6.594;2023-04-03T06:04:46;3.00;99.90
22471;DHT22;11402;51.374;6.594;2023-04-03T06:07:15;3.10;99.90
22471;DHT22;11402;51.374;6.594;2023-04-03T06:09:41;3.10;99.90
22471;DHT22;11402;51.374;6.594;2023-04-03T06:12:07;3.00;99.90
22471;DHT22;11402;51.374;6.594;2023-04-03T06:14:33;3.20;99.90
22471;DHT22;11402;51.374;6.594;2023-04-03T06:16:58;3.20;99.90
22471;DHT22;11402;51.374;6.594;2023-04-03T06:19:25;3.30;99.90
22471;DHT22;11402;51.374;6.594;2023-04-03T06:21:51;3.30;99.90
22471;DHT22;11402;51.374;6.594;2023-04-03T06:24:18;3.20;99.90
22471;DHT22;11402;51.374;6.594;2023-04-03T06:26:44;3.40;99.90
22471;DHT22;11402;51.374;6.594;2023-04-03T06:29:09;3.50;99.90
22471;DHT22;11402;51.374;6.594;2023-04-03T06:31:35;3.50;99.90
22471;DHT22;11402;51.374;6.594;2023-04-03T06:34:04;3.70;99.90
22471;DHT22;11402;51.374;6.594;2023-04-03T06:36:31;3.80;99.90
22471;DHT22;11402;51.374;6.594;2023-04-03T06:38:57;3.60;99.90
22471;DHT22;11402;51.374;6.594;2023-04-03T06:41:22;3.60;99.90
22471;DHT22;11402;51.374;6.594;2023-04-03T06:43:48;3.60;99.90
22471;DHT22;11402;51.374;6.594;2023-04-03T06:46:15;3.60;99.90
22471;DHT22;11402;51.374;6.594;2023-04-03T06:48:42;3.70;99.90
22471;DHT22;11402;51.374;6.594;2023-04-03T06:51:29;3.80;99.90
22471;DHT22;11402;51.374;6.594;2023-04-03T06:53:57;3.90;99.90
22471;DHT22;11402;51.374;6.594;2023-04-03T06:56:23;3.90;99.90
22471;DHT22;11402;51.374;6.594;2023-04-03T06:58:49;3.70;99.90
22471;DHT22;11402;51.374;6.594;2023-04-03T07:01:16;3.90;99.90
22471;DHT22;11402;51.374;6.594;2023-04-03T07:03:44;4.00;99.90
22471;DHT22;11402;51.374;6.594;2023-04-03T07:06:12;3.90;99.90
22471;DHT22;11402;51.374;6.594;2023-04-03T07:08:39;4.00;99.90
22471;DHT22;11402;51.374;6.594;2023-04-03T07:11:05;4.20;99.90
22471;DHT22;11402;51.374;6.594;2023-04-03T07:13:31;4.20;99.90
22471;DHT22;11402;51.374;6.594;2023-04-03T07:15:58;4.10;99.90
22471;DHT22;11402;51.374;6.594;2023-04-03T07:18:24;4.10;99.90
22471;DHT22;11402;51.374;6.594;2023-04-03T07:20:50;4.20;99.90
22471;DHT22;11402;51.374;6.594;2023-04-03T07:23:16;4.30;99.90
22471;DHT22;11402;51.374;6.594;2023-04-03T07:25:46;4.30;99.90
22471;DHT22;11402;51.374;6.594;2023-04-03T07:28:12;4.30;99.90
22471;DHT22;11402;51.374;6.594;2023-04-03T07:30:49;4.50;99.90
22471;DHT22;11402;51.374;6.594;2023-04-03T07:33:17;4.50;99.90
22471;DHT22;11402;51.374;6.594;2023-04-03T07:35:43;4.60;99.90
22471;DHT22;11402;51.374;6.594;2023-04-03T07:38:09;4.60;99.90
22471;DHT22;11402;51.374;6.594;2023-04-03T07:40:36;4.50;99.90
22471;DHT22;11402;51.374;6.594;2023-04-03T07:43:01;4.50;99.90
22471;DHT22;11402;51.374;6.594;2023-04-03T07:45:28;4.50;99.90
22471;DHT22;11402;51.374;6.594;2023-04-03T07:47:54;4.60;99.90
22471;DHT22;11402;51.374;6.594;2023-04-03T07:50:19;4.40;99.90
22471;DHT22;11402;51.374;6.594;2023-04-03T07:52:45;4.50;99.90
22471;DHT22;11402;51.374;6.594;2023-04-03T07:55:11;4.60;99.90
22471;DHT22;11402;51.374;6.594;2023-04-03T07:57:37;4.80;99.90
22471;DHT22;11402;51.374;6.594;2023-04-03T08:00:06;4.90;99.90
22471;DHT22;11402;51.374;6.594;2023-04-03T08:02:32;5.00;99.90
22471;DHT22;11402;51.374;6.594;2023-04-03T08:04:58;4.90;99.90
22471;DHT22;11402;51.374;6.594;2023-04-03T08:07:24;4.80;99.90
22471;DHT22;11402;51.374;6.594;2023-04-03T08:09:50;5.00;99.90
22471;DHT22;11402;51.374;6.594;2023-04-03T08:12:16;5.30;99.90
22471;DHT22;11402;51.374;6.594;2023-04-03T08:14:42;5.40;99.90
22471;DHT22;11402;51.374;6.594;2023-04-03T08:17:08;5.00;99.90
22471;DHT22;11402;51.374;6.594;2023-04-03T08:19:37;5.10;99.90
22471;DHT22;11402;51.374;6.594;2023-04-03T08:22:03;5.40;99.90
22471;DHT22;11402;51.374;6.594;2023-04-03T08:24:30;5.40;99.90
22471;DHT22;11402;51.374;6.594;2023-04-03T08:26:56;5.60;99.90
22471;DHT22;11402;51.374;6.594;2023-04-03T08:29:22;5.80;99.90
22471;DHT22;11402;51.374;6.594;2023-04-03T08:31:48;5.70;99.90
22471;DHT22;11402;51.374;6.594;2023-04-03T08:34:15;5.60;99.90
22471;DHT22;11402;51.374;6.594;2023-04-03T08:36:41;5.50;99.90
22471;DHT22;11402;51.374;6.594;2023-04-03T08:39:07;5.50;99.90
22471;DHT22;11402;51.374;6.594;2023-04-03T08:41:38;5.60;99.90
22471;DHT22;11402;51.374;6.594;2023-04-03T08:50:02;6.00;99.90
22471;DHT22;11402;51.374;6.594;2023-04-03T08:52:51;6.10;99.90
22471;DHT22;11402;51.374;6.594;2023-04-03T08:55:50;5.90;99.90
22471;DHT22;11402;51.374;6.594;2023-04-03T08:58:22;5.90;99.90
22471;DHT22;11402;51.374;6.594;2023-04-03T09:01:20;6.20;99.90
22471;DHT22;11402;51.374;6.594;2023-04-03T09:03:46;6.40;99.90
22471;DHT22;11402;51.374;6.594;2023-04-03T09:06:17;6.50;99.90
22471;DHT22;11402;51.374;6.594;2023-04-03T09:08:51;6.40;99.90
22471;DHT22;11402;51.374;6.594;2023-04-03T09:16:55;6.60;99.90
22471;DHT22;11402;51.374;6.594;2023-04-03T09:22:09;6.50;99.90
22471;DHT22;11402;51.374;6.594;2023-04-03T09:24:36;6.60;99.90
22471;DHT22;11402;51.374;6.594;2023-04-03T09:27:09;6.50;99.90
22471;DHT22;11402;51.374;6.594;2023-04-03T09:29:41;6.60;99.90
22471;DHT22;11402;51.374;6.594;2023-04-03T09:32:27;6.80;99.90
22471;DHT22;11402;51.374;6.594;2023-04-03T09:34:55;7.00;99.90
22471;DHT22;11402;51.374;6.594;2023-04-03T09:37:55;6.90;99.90
22471;DHT22;11402;51.374;6.594;2023-04-03T09:40:31;7.00;99.90
22471;DHT22;11402;51.374;6.594;2023-04-03T09:43:23;6.90;99.90
22471;DHT22;11402;51.374;6.594;2023-04-03T09:45:48;6.60;99.90
22471;DHT22;11402;51.374;6.594;2023-04-03T09:50:52;6.70;99.90
22471;DHT22;11402;51.374;6.594;2023-04-03T09:55:58;6.80;99.90
22471;DHT22;11402;51.374;6.594;2023-04-03T09:58:30;6.70;99.90
22471;DHT22;11402;51.374;6.594;2023-04-03T10:01:01;6.90;99.90
22471;DHT22;11402;51.374;6.594;2023-04-03T10:03:32;7.00;99.90
22471;DHT22;11402;51.374;6.594;2023-04-03T10:05:58;7.10;99.90
22471;DHT22;11402;51.374;6.594;2023-04-03T10:08:33;7.10;99.90
22471;DHT22;11402;51.374;6.594;2023-04-03T10:11:08;7.30;99.90
22471;DHT22;11402;51.374;6.594;2023-04-03T10:13:35;7.20;99.90
22471;DHT22;11402;51.374;6.594;2023-04-03T10:16:08;7.10;99.90
22471;DHT22;11402;51.374;6.594;2023-04-03T10:19:21;7.10;99.90
22471;DHT22;11402;51.374;6.594;2023-04-03T10:21:38;7.10;99.90
22471;DHT22;11402;51.374;6.594;2023-04-03T10:34:26;7.00;99.90
22471;DHT22;11402;51.374;6.594;2023-04-03T10:37:05;7.20;99.90
22471;DHT22;11402;51.374;6.594;2023-04-03T10:45:18;7.50;99.00
22471;DHT22;11402;51.374;6.594;2023-04-03T10:48:08;7.50;99.90
22471;DHT22;11402;51.374;6.594;2023-04-03T10:51:06;7.60;99.90
22471;DHT22;11402;51.374;6.594;2023-04-03T10:53:44;7.60;99.90
22471;DHT22;11402;51.374;6.594;2023-04-03T10:56:30;7.70;99.90
22471;DHT22;11402;51.374;6.594;2023-04-03T10:59:02;7.70;99.90
22471;DHT22;11402;51.374;6.594;2023-04-03T11:01:38;7.60;99.60
22471;DHT22;11402;51.374;6.594;2023-04-03T11:04:05;7.50;99.90
22471;DHT22;11402;51.374;6.594;2023-04-03T11:09:46;7.60;99.90
22471;DHT22;11402;51.374;6.594;2023-04-03T11:15:16;7.70;99.90
22471;DHT22;11402;51.374;6.594;2023-04-03T11:17:55;7.60;99.90
22471;DHT22;11402;51.374;6.594;2023-04-03T11:20:28;7.60;99.90
22471;DHT22;11402;51.374;6.594;2023-04-03T11:25:47;7.80;99.90
22471;DHT22;11402;51.374;6.594;2023-04-03T11:28:15;7.90;99.90
22471;DHT22;11402;51.374;6.594;2023-04-03T11:36:25;7.80;99.90
22471;DHT22;11402;51.374;6.594;2023-04-03T11:38:57;7.90;99.90
22471;DHT22;11402;51.374;6.594;2023-04-03T11:41:29;7.90;99.90
22471;DHT22;11402;51.374;6.594;2023-04-03T11:43:59;7.70;99.90
22471;DHT22;11402;51.374;6.594;2023-04-03T11:46:51;7.80;99.90
22471;DHT22;11402;51.374;6.594;2023-04-03T11:49:55;8.00;99.90
22471;DHT22;11402;51.374;6.594;2023-04-03T12:05:48;8.10;99.90
22471;DHT22;11402;51.374;6.594;2023-04-03T12:16:26;8.10;99.90
22471;DHT22;11402;51.374;6.594;2023-04-03T12:26:50;8.10;99.90
22471;DHT22;11402;51.374;6.594;2023-04-03T12:32:22;8.30;99.90
22471;DHT22;11402;51.374;6.594;2023-04-03T12:35:15;8.30;99.90
22471;DHT22;11402;51.374;6.594;2023-04-03T12:41:14;8.00;99.90
22471;DHT22;11402;51.374;6.594;2023-04-03T12:44:01;8.20;99.90
22471;DHT22;11402;51.374;6.594;2023-04-03T12:46:38;8.30;99.90
22471;DHT22;11402;51.374;6.594;2023-04-03T12:49:37;8.50;99.90
22471;DHT22;11402;51.374;6.594;2023-04-03T12:52:04;8.30;99.90
22471;DHT22;11402;51.374;6.594;2023-04-03T12:54:38;8.30;99.90
22471;DHT22;11402;51.374;6.594;2023-04-03T12:57:19;8.30;99.90
22471;DHT22;11402;51.374;6.594;2023-04-03T12:59:45;8.30;99.90
22471;DHT22;11402;51.374;6.594;2023-04-03T13:04:57;8.50;99.90
22471;DHT22;11402;51.374;6.594;2023-04-03T13:07:34;8.60;99.90
22471;DHT22;11402;51.374;6.594;2023-04-03T13:12:44;8.60;99.90
22471;DHT22;11402;51.374;6.594;2023-04-03T13:15:30;8.60;99.90
22471;DHT22;11402;51.374;6.594;2023-04-03T13:18:42;8.80;99.90
22471;DHT22;11402;51.374;6.594;2023-04-03T13:21:21;8.80;99.90
22471;DHT22;11402;51.374;6.594;2023-04-03T13:23:51;8.90;99.90
22471;DHT22;11402;51.374;6.594;2023-04-03T13:26:18;8.70;99.90
22471;DHT22;11402;51.374;6.594;2023-04-03T13:28:46;8.50;99.90
22471;DHT22;11402;51.374;6.594;2023-04-03T13:33:52;8.70;99.90
22471;DHT22;11402;51.374;6.594;2023-04-03T13:36:22;8.80;99.90
22471;DHT22;11402;51.374;6.594;2023-04-03T13:41:40;8.60;99.90
22471;DHT22;11402;51.374;6.594;2023-04-03T13:46:47;8.70;99.90
22471;DHT22;11402;51.374;6.594;2023-04-03T13:52:17;8.60;99.90
22471;DHT22;11402;51.374;6.594;2023-04-03T13:54:56;8.70;99.90
22471;DHT22;11402;51.374;6.594;2023-04-03T13:57:22;8.70;99.90
22471;DHT22;11402;51.374;6.594;2023-04-03T13:59:48;8.70;99.90
22471;DHT22;11402;51.374;6.594;2023-04-03T14:02:21;8.70;99.90
22471;DHT22;11402;51.374;6.594;2023-04-03T14:04:52;8.80;99.90
22471;DHT22;11402;51.374;6.594;2023-04-03T14:07:22;8.70;99.90
22471;DHT22;11402;51.374;6.594;2023-04-03T14:09:48;8.60;99.90
22471;DHT22;11402;51.374;6.594;2023-04-03T14:12:34;8.60;99.90
22471;DHT22;11402;51.374;6.594;2023-04-03T14:15:04;8.50;99.70
22471;DHT22;11402;51.374;6.594;2023-04-03T14:17:30;8.60;99.90
22471;DHT22;11402;51.374;6.594;2023-04-03T14:19:57;8.70;99.90
22471;DHT22;11402;51.374;6.594;2023-04-03T14:22:24;8.60;99.90
22471;DHT22;11402;51.374;6.594;2023-04-03T14:24:51;8.70;99.90
22471;DHT22;11402;51.374;6.594;2023-04-03T14:27:24;8.70;99.90
22471;DHT22;11402;51.374;6.594;2023-04-03T14:29:51;8.70;99.90
22471;DHT22;11402;51.374;6.594;2023-04-03T14:32:19;8.80;99.90
22471;DHT22;11402;51.374;6.594;2023-04-03T14:34:45;8.80;99.90
22471;DHT22;11402;51.374;6.594;2023-04-03T14:37:16;8.80;99.90
22471;DHT22;11402;51.374;6.594;2023-04-03T14:39:43;8.70;99.90
22471;DHT22;11402;51.374;6.594;2023-04-03T14:42:17;8.70;99.90
22471;DHT22;11402;51.374;6.594;2023-04-03T14:44:43;8.70;99.90
22471;DHT22;11402;51.374;6.594;2023-04-03T14:47:20;8.60;99.90
22471;DHT22;11402;51.374;6.594;2023-04-03T14:49:47;8.60;99.90
22471;DHT22;11402;51.374;6.594;2023-04-03T14:52:25;8.60;99.90
22471;DHT22;11402;51.374;6.594;2023-04-03T14:54:52;8.60;99.90
22471;DHT22;11402;51.374;6.594;2023-04-03T14:57:27;8.60;99.90
22471;DHT22;11402;51.374;6.594;2023-04-03T14:59:53;8.60;99.90
22471;DHT22;11402;51.374;6.594;2023-04-03T15:02:32;8.70;99.90
22471;DHT22;11402;51.374;6.594;2023-04-03T15:04:59;8.80;99.90
22471;DHT22;11402;51.374;6.594;2023-04-03T15:07:27;8.80;99.90
22471;DHT22;11402;51.374;6.594;2023-04-03T15:09:54;8.90;99.90
22471;DHT22;11402;51.374;6.594;2023-04-03T15:12:22;8.80;99.90
22471;DHT22;11402;51.374;6.594;2023-04-03T15:14:48;8.70;99.90
22471;DHT22;11402;51.374;6.594;2023-04-03T15:17:20;8.60;99.90
22471;DHT22;11402;51.374;6.594;2023-04-03T15:19:46;8.70;99.90
22471;DHT22;11402;51.374;6.594;2023-04-03T15:22:14;8.60;99.90
22471;DHT22;11402;51.374;6.594;2023-04-03T15:24:40;8.60;99.90
22471;DHT22;11402;51.374;6.594;2023-04-03T15:27:06;8.60;99.90
22471;DHT22;11402;51.374;6.594;2023-04-03T15:29:31;8.70;99.90
22471;DHT22;11402;51.374;6.594;2023-04-03T15:31:57;8.80;99.90
22471;DHT22;11402;51.374;6.594;2023-04-03T15:34:22;8.60;99.90
22471;DHT22;11402;51.374;6.594;2023-04-03T15:36:48;8.60;99.90
22471;DHT22;11402;51.374;6.594;2023-04-03T15:39:14;8.60;99.90
22471;DHT22;11402;51.374;6.594;2023-04-03T15:41:41;8.60;99.90
22471;DHT22;11402;51.374;6.594;2023-04-03T15:44:07;8.60;99.90
22471;DHT22;11402;51.374;6.594;2023-04-03T15:46:33;8.60;99.90
22471;DHT22;11402;51.374;6.594;2023-04-03T15:48:58;8.50;99.90
22471;DHT22;11402;51.374;6.594;2023-04-03T15:51:24;8.50;99.90
22471;DHT22;11402;51.374;6.594;2023-04-03T15:53:49;8.50;99.90
22471;DHT22;11402;51.374;6.594;2023-04-03T15:56:15;8.40;99.90
22471;DHT22;11402;51.374;6.594;2023-04-03T15:58:41;8.40;99.90
22471;DHT22;11402;51.374;6.594;2023-04-03T16:01:08;8.40;99.90
22471;DHT22;11402;51.374;6.594;2023-04-03T16:03:34;8.50;99.90
22471;DHT22;11402;51.374;6.594;2023-04-03T16:06:00;8.40;99.90
22471;DHT22;11402;51.374;6.594;2023-04-03T16:08:27;8.40;99.90
22471;DHT22;11402;51.374;6.594;2023-04-03T16:10:53;8.40;99.90
22471;DHT22;11402;51.374;6.594;2023-04-03T16:13:18;8.40;99.90
22471;DHT22;11402;51.374;6.594;2023-04-03T16:15:44;8.40;99.90
22471;DHT22;11402;51.374;6.594;2023-04-03T16:18:10;8.40;99.90
22471;DHT22;11402;51.374;6.594;2023-04-03T16:20:36;8.40;99.90
22471;DHT22;11402;51.374;6.594;2023-04-03T16:23:02;8.30;99.90
22471;DHT22;11402;51.374;6.594;2023-04-03T16:25:28;8.30;99.90
22471;DHT22;11402;51.374;6.594;2023-04-03T16:27:54;8.30;99.90
22471;DHT22;11402;51.374;6.594;2023-04-03T16:30:19;8.30;99.90
22471;DHT22;11402;51.374;6.594;2023-04-03T16:32:45;8.20;99.90
22471;DHT22;11402;51.374;6.594;2023-04-03T16:35:11;8.20;99.90
22471;DHT22;11402;51.374;6.594;2023-04-03T16:37:37;8.30;99.90
22471;DHT22;11402;51.374;6.594;2023-04-03T16:40:05;8.30;99.90
22471;DHT22;11402;51.374;6.594;2023-04-03T16:42:31;8.40;99.90
22471;DHT22;11402;51.374;6.594;2023-04-03T16:44:56;8.30;99.90
22471;DHT22;11402;51.374;6.594;2023-04-03T16:47:24;8.30;99.90
22471;DHT22;11402;51.374;6.594;2023-04-03T16:49:49;8.30;99.90
22471;DHT22;11402;51.374;6.594;2023-04-03T16:52:15;8.30;99.90
22471;DHT22;11402;51.374;6.594;2023-04-03T16:54:40;8.40;99.90
22471;DHT22;11402;51.374;6.594;2023-04-03T16:57:06;8.50;99.90
22471;DHT22;11402;51.374;6.594;2023-04-03T16:59:32;8.30;99.90
22471;DHT22;11402;51.374;6.594;2023-04-03T17:01:57;8.30;99.90
22471;DHT22;11402;51.374;6.594;2023-04-03T17:04:23;8.20;99.90
22471;DHT22;11402;51.374;6.594;2023-04-03T17:06:48;8.10;99.90
22471;DHT22;11402;51.374;6.594;2023-04-03T17:09:14;8.10;99.90
22471;DHT22;11402;51.374;6.594;2023-04-03T17:11:40;8.00;99.90
22471;DHT22;11402;51.374;6.594;2023-04-03T17:14:06;8.10;99.90
22471;DHT22;11402;51.374;6.594;2023-04-03T17:16:34;8.10;99.90
22471;DHT22;11402;51.374;6.594;2023-04-03T17:19:00;8.00;99.90
22471;DHT22;11402;51.374;6.594;2023-04-03T17:21:27;7.80;99.90
22471;DHT22;11402;51.374;6.594;2023-04-03T17:26:23;7.70;99.90
22471;DHT22;11402;51.374;6.594;2023-04-03T17:28:50;7.80;99.90
22471;DHT22;11402;51.374;6.594;2023-04-03T17:31:16;7.80;99.90
22471;DHT22;11402;51.374;6.594;2023-04-03T17:33:42;7.70;99.90
22471;DHT22;11402;51.374;6.594;2023-04-03T17:36:07;7.60;99.90
22471;DHT22;11402;51.374;6.594;2023-04-03T17:38:33;7.60;99.90
22471;DHT22;11402;51.374;6.594;2023-04-03T17:41:01;7.60;99.90
22471;DHT22;11402;51.374;6.594;2023-04-03T17:43:27;7.60;99.90
22471;DHT22;11402;51.374;6.594;2023-04-03T17:45:53;7.60;99.90
22471;DHT22;11402;51.374;6.594;2023-04-03T17:48:19;7.50;99.90